Terminal Aerodrome Forecast
Issued by NWS

Current Version | Previous Version | Text Only | Print | Product List | Glossary Off
Versions: 1 2 3 4 5 6 7 8 9 10 11 12 13 14 15 16

000
FTUS41 KPBZ 162323
TAFMGW
TAF
KMGW 162323Z 1700/1724 21005KT P6SM FEW250
     FM171800 21006KT P6SM VCSH OVC150=

USA.gov is the U.S. government's official web portal to all federal, state and local government web resources and services.